createdAt,value
2019-03-27T00:01:54.188Z,48.07
2019-03-27T00:04:23.857Z,48.29
2019-03-27T00:06:53.648Z,48.42
2019-03-27T00:09:25.531Z,48.65
2019-03-27T00:11:54.983Z,48.74
2019-03-27T00:14:24.812Z,48.79
2019-03-27T00:16:54.579Z,48.70
2019-03-27T00:19:24.244Z,48.73
2019-03-27T00:21:54.092Z,48.89
2019-03-27T00:24:23.843Z,49.11
2019-03-27T00:26:53.570Z,49.24
2019-03-27T00:29:23.360Z,49.34
2019-03-27T00:31:53.739Z,49.39
2019-03-27T00:34:23.466Z,49.40
2019-03-27T00:36:53.247Z,49.45
2019-03-27T00:39:22.983Z,49.59
2019-03-27T00:41:52.761Z,49.64
2019-03-27T00:44:22.583Z,49.55
2019-03-27T00:46:52.391Z,49.50
2019-03-27T00:49:22.090Z,49.57
2019-03-27T00:51:51.887Z,49.44
2019-03-27T00:54:21.610Z,49.42
2019-03-27T00:56:51.381Z,49.57
2019-03-27T00:59:21.165Z,49.61
2019-03-27T01:01:51.005Z,49.63
2019-03-27T01:04:20.697Z,49.70
2019-03-27T01:06:51.116Z,49.71
2019-03-27T01:09:20.934Z,49.88
2019-03-27T01:11:50.805Z,50.00
2019-03-27T01:14:20.550Z,50.06
2019-03-27T01:16:50.325Z,50.11
2019-03-27T01:19:20.084Z,50.15
2019-03-27T01:21:49.868Z,50.24
2019-03-27T01:24:19.586Z,50.19
2019-03-27T01:26:49.282Z,50.16
2019-03-27T01:29:19.132Z,50.20
2019-03-27T01:31:48.955Z,50.20
2019-03-27T01:34:18.695Z,50.30
2019-03-27T01:36:48.458Z,50.40
2019-03-27T01:39:18.117Z,50.44
2019-03-27T01:41:47.818Z,50.40
2019-03-27T01:44:17.527Z,50.37
2019-03-27T01:46:47.240Z,50.38
2019-03-27T01:49:16.920Z,50.36
2019-03-27T01:51:46.584Z,50.41
2019-03-27T01:54:16.262Z,50.46
2019-03-27T01:56:45.980Z,50.47
2019-03-27T01:59:15.651Z,50.49
2019-03-27T02:01:45.450Z,50.51
2019-03-27T02:04:15.190Z,50.62
2019-03-27T02:06:44.945Z,50.68
2019-03-27T02:09:14.643Z,50.77
2019-03-27T02:11:44.318Z,50.80
2019-03-27T02:14:14.054Z,50.72
2019-03-27T02:16:43.971Z,50.70
2019-03-27T02:19:13.884Z,50.64
2019-03-27T02:21:43.903Z,50.56
2019-03-27T02:24:13.649Z,50.58
2019-03-27T02:26:43.399Z,50.58
2019-03-27T02:29:13.659Z,50.57
2019-03-27T02:31:43.391Z,50.54
2019-03-27T02:34:13.118Z,50.51
2019-03-27T02:36:42.917Z,50.44
2019-03-27T02:39:12.615Z,50.45
2019-03-27T02:41:42.398Z,50.49
2019-03-27T02:44:12.145Z,50.53
2019-03-27T02:46:41.872Z,50.59
2019-03-27T02:49:11.590Z,50.69
2019-03-27T02:51:41.485Z,50.74
2019-03-27T02:54:11.262Z,50.89
2019-03-27T02:56:40.969Z,50.91
2019-03-27T02:59:10.773Z,50.98
2019-03-27T03:01:40.501Z,51.11
2019-03-27T03:04:10.134Z,51.24
2019-03-27T03:06:39.931Z,51.36
2019-03-27T03:09:09.718Z,51.55
2019-03-27T03:11:39.453Z,51.75
2019-03-27T03:14:09.183Z,51.88
2019-03-27T03:16:42.685Z,52.04
2019-03-27T03:19:10.384Z,52.23
2019-03-27T03:21:40.215Z,52.42
2019-03-27T03:24:10.035Z,52.57
2019-03-27T03:26:39.734Z,52.71
2019-03-27T03:29:09.509Z,52.82
2019-03-27T03:31:39.263Z,52.95
2019-03-27T03:34:09.003Z,53.05
2019-03-27T03:36:38.752Z,53.20
2019-03-27T03:39:08.555Z,53.29
2019-03-27T03:41:38.298Z,53.41
2019-03-27T03:44:07.971Z,53.52
2019-03-27T03:46:37.733Z,53.58
2019-03-27T03:49:07.469Z,53.69
2019-03-27T03:51:37.242Z,53.88
2019-03-27T03:54:06.984Z,54.01
2019-03-27T03:56:36.946Z,54.11
2019-03-27T03:59:06.655Z,54.23
2019-03-27T04:01:36.397Z,54.30
2019-03-27T04:04:06.106Z,54.35
2019-03-27T04:06:35.816Z,54.37
2019-03-27T04:09:06.094Z,54.42
2019-03-27T04:11:35.880Z,54.56
2019-03-27T04:14:05.566Z,54.63
2019-03-27T04:16:35.336Z,54.66
2019-03-27T04:19:05.125Z,54.68
2019-03-27T04:21:34.853Z,54.73
2019-03-27T04:24:04.623Z,54.79
2019-03-27T04:26:34.330Z,54.80
2019-03-27T04:29:04.100Z,54.79
2019-03-27T04:31:33.891Z,54.78
2019-03-27T04:34:03.663Z,54.78
2019-03-27T04:36:33.564Z,54.78
2019-03-27T04:39:04.570Z,54.79
2019-03-27T04:41:34.355Z,54.71
2019-03-27T04:44:04.072Z,54.74
2019-03-27T04:46:33.845Z,54.75
2019-03-27T04:49:07.489Z,54.71
2019-03-27T04:51:35.178Z,54.72
2019-03-27T04:54:04.898Z,54.74
2019-03-27T04:56:34.716Z,54.76
2019-03-27T04:59:04.400Z,54.78
2019-03-27T05:01:34.161Z,54.87
2019-03-27T05:04:05.221Z,54.86
2019-03-27T05:06:35.051Z,54.86
2019-03-27T05:09:05.077Z,54.85
2019-03-27T05:11:34.847Z,54.81
2019-03-27T05:14:04.689Z,54.79
2019-03-27T05:16:34.537Z,54.73
2019-03-27T05:19:04.421Z,54.71
2019-03-27T05:21:34.231Z,54.60
2019-03-27T05:24:03.974Z,54.52
2019-03-27T05:26:33.756Z,54.43
2019-03-27T05:29:03.647Z,54.37
2019-03-27T05:31:33.451Z,54.34
2019-03-27T05:34:03.168Z,54.27
2019-03-27T05:36:33.017Z,54.14
2019-03-27T05:39:02.845Z,54.09
2019-03-27T05:41:32.528Z,54.06
2019-03-27T05:44:02.305Z,54.11
2019-03-27T05:46:32.091Z,54.12
2019-03-27T05:49:01.908Z,54.19
2019-03-27T05:51:31.638Z,54.21
2019-03-27T05:54:01.439Z,54.27
2019-03-27T05:56:31.212Z,54.29
2019-03-27T05:59:00.963Z,54.35
2019-03-27T06:01:30.870Z,54.41
2019-03-27T06:04:00.644Z,54.50
2019-03-27T06:06:30.429Z,54.51
2019-03-27T06:09:00.189Z,54.44
2019-03-27T06:11:30.010Z,54.29
2019-03-27T06:14:00.177Z,54.21
2019-03-27T06:16:33.777Z,54.07
2019-03-27T06:19:37.093Z,53.97
2019-03-27T06:22:19.319Z,53.84
2019-03-27T06:24:54.727Z,53.56
2019-03-27T06:27:54.394Z,53.45
2019-03-27T06:30:24.275Z,53.40
2019-03-27T06:32:54.670Z,53.16
2019-03-27T06:35:25.407Z,53.04
2019-03-27T06:38:26.981Z,52.92
2019-03-27T06:41:31.169Z,52.73
2019-03-27T06:44:20.591Z,52.59
2019-03-27T06:47:21.748Z,52.55
2019-03-27T06:50:37.857Z,52.43
2019-03-27T06:53:14.559Z,52.22
2019-03-27T06:56:18.781Z,51.84
2019-03-27T06:59:27.179Z,51.67
2019-03-27T07:02:13.539Z,51.23
2019-03-27T07:04:44.195Z,50.58
2019-03-27T07:07:14.188Z,49.74
2019-03-27T07:09:55.943Z,48.46
2019-03-27T07:12:34.044Z,47.64
2019-03-27T07:15:15.271Z,46.82
2019-03-27T07:17:45.533Z,45.85
2019-03-27T07:20:16.209Z,45.64
2019-03-27T07:22:46.857Z,45.37
2019-03-27T07:25:22.506Z,45.20
2019-03-27T07:27:52.323Z,45.27
2019-03-27T07:30:25.718Z,45.63
2019-03-27T07:33:05.777Z,45.94
2019-03-27T07:35:55.075Z,46.30
2019-03-27T07:38:34.967Z,46.72
2019-03-27T07:41:10.641Z,46.90
2019-03-27T07:43:44.562Z,47.14
2019-03-27T07:46:39.167Z,47.35
2019-03-27T07:49:08.954Z,47.40
2019-03-27T07:51:39.025Z,47.46
2019-03-27T07:54:08.813Z,47.07
2019-03-27T07:56:38.705Z,46.91
2019-03-27T07:59:09.105Z,46.38
2019-03-27T08:04:58.200Z,45.14
2019-03-27T08:07:42.054Z,43.89
2019-03-27T08:10:21.462Z,42.93
2019-03-27T08:13:16.359Z,41.83
2019-03-27T08:15:52.518Z,40.79
2019-03-27T08:18:23.327Z,39.33
2019-03-27T08:20:57.972Z,38.73
2019-03-27T08:23:37.263Z,37.64
2019-03-27T08:26:19.730Z,37.83
2019-03-27T08:29:01.067Z,37.10
2019-03-27T08:31:31.452Z,35.24
2019-03-27T08:34:24.395Z,33.18
2019-03-27T08:41:38.519Z,29.76
2019-03-27T08:47:54.869Z,27.04
2019-03-27T08:58:28.119Z,25.83
2019-03-27T09:00:57.822Z,26.00
2019-03-27T09:03:27.736Z,25.95
2019-03-27T09:05:59.135Z,24.91
2019-03-27T09:08:28.938Z,24.04
2019-03-27T09:10:58.669Z,22.47
2019-03-27T09:13:28.366Z,21.82
2019-03-27T09:15:58.152Z,20.83
2019-03-27T09:18:27.944Z,20.24
2019-03-27T09:20:57.720Z,19.13
2019-03-27T09:23:27.513Z,18.59
2019-03-27T09:25:57.244Z,17.70
2019-03-27T09:28:27.070Z,17.37
2019-03-27T09:30:56.770Z,17.10
2019-03-27T09:33:26.551Z,17.33
2019-03-27T09:35:56.240Z,17.42
2019-03-27T09:38:26.078Z,18.45
2019-03-27T09:40:55.786Z,18.85
2019-03-27T09:43:25.513Z,18.55
2019-03-27T09:45:55.427Z,17.59
2019-03-27T09:48:25.345Z,16.65
2019-03-27T09:50:55.079Z,16.07
2019-03-27T09:53:25.095Z,15.02
2019-03-27T09:55:55.115Z,14.84
2019-03-27T09:58:24.870Z,14.19
2019-03-27T10:00:56.376Z,13.79
2019-03-27T10:03:26.268Z,14.39
2019-03-27T10:05:55.941Z,15.44
2019-03-27T10:08:25.834Z,16.02
2019-03-27T10:10:55.786Z,16.70
2019-03-27T10:13:25.544Z,17.00
2019-03-27T10:15:55.863Z,16.17
2019-03-27T10:18:25.803Z,16.20
2019-03-27T10:20:55.942Z,15.62
2019-03-27T10:23:25.739Z,14.55
2019-03-27T10:25:55.442Z,13.59
2019-03-27T10:28:25.357Z,12.91
2019-03-27T10:30:55.244Z,12.37
2019-03-27T10:33:25.087Z,12.24
2019-03-27T10:35:55.076Z,11.82
2019-03-27T10:38:24.836Z,11.42
2019-03-27T10:40:55.010Z,10.72
2019-03-27T10:43:24.734Z,9.89
2019-03-27T10:45:54.414Z,9.77
2019-03-27T10:48:24.186Z,9.76
2019-03-27T10:50:54.125Z,10.34
2019-03-27T10:53:24.033Z,10.55
2019-03-27T10:55:53.844Z,10.98
2019-03-27T10:58:23.763Z,11.91
2019-03-27T11:00:53.874Z,13.07
2019-03-27T11:03:23.731Z,14.40
2019-03-27T11:05:53.529Z,15.21
2019-03-27T11:08:23.278Z,14.38
2019-03-27T11:10:53.116Z,13.85
2019-03-27T11:13:26.013Z,14.51
2019-03-27T11:15:56.437Z,15.12
2019-03-27T11:18:26.187Z,15.99
2019-03-27T11:20:56.190Z,16.20
2019-03-27T11:23:26.122Z,14.90
2019-03-27T11:25:55.941Z,14.02
2019-03-27T11:28:25.722Z,14.39
2019-03-27T11:30:55.544Z,14.37
2019-03-27T11:33:28.764Z,13.65
2019-03-27T11:35:57.436Z,13.03
2019-03-27T11:38:27.420Z,13.68
2019-03-27T11:40:57.323Z,14.72
2019-03-27T11:43:27.070Z,15.56
2019-03-27T11:45:57.063Z,16.22
2019-03-27T11:48:36.395Z,17.08
2019-03-27T11:51:20.155Z,17.83
2019-03-27T11:54:09.016Z,18.61
2019-03-27T11:56:45.457Z,19.06
2019-03-27T11:59:52.872Z,19.65
2019-03-27T12:02:21.510Z,20.04
2019-03-27T12:05:19.925Z,20.82
2019-03-27T12:09:13.111Z,21.39
2019-03-27T12:11:22.203Z,21.70
2019-03-27T12:14:05.170Z,22.31
2019-03-27T12:16:52.536Z,22.70
2019-03-27T12:19:22.350Z,22.97
2019-03-27T12:22:13.597Z,23.23
2019-03-27T12:25:38.396Z,23.53
2019-03-27T12:28:10.941Z,23.58
2019-03-27T12:31:14.295Z,23.64
2019-03-27T12:34:16.617Z,23.83
2019-03-27T12:37:11.296Z,24.01
2019-03-27T12:39:45.079Z,24.07
2019-03-27T12:42:23.271Z,24.29
2019-03-27T12:45:08.115Z,24.21
2019-03-27T12:47:49.717Z,24.16
2019-03-27T12:50:30.731Z,24.19
2019-03-27T12:53:09.639Z,24.29
2019-03-27T12:55:39.403Z,23.94
2019-03-27T12:58:41.422Z,23.83
2019-03-27T13:01:40.869Z,23.79
2019-03-27T13:04:38.152Z,23.70
2019-03-27T13:07:49.008Z,23.81
2019-03-27T13:10:32.575Z,23.87
2019-03-27T13:13:17.015Z,23.78
2019-03-27T13:16:00.233Z,23.49
2019-03-27T13:18:51.177Z,23.49
2019-03-27T13:21:44.450Z,23.65
2019-03-27T13:24:29.684Z,23.53
2019-03-27T13:27:24.334Z,23.40
2019-03-27T13:30:23.562Z,23.41
2019-03-27T13:33:16.461Z,23.39
2019-03-27T13:36:19.680Z,23.38
2019-03-27T13:39:22.946Z,23.65
2019-03-27T13:42:14.890Z,23.47
2019-03-27T13:44:54.383Z,23.32
2019-03-27T13:47:29.224Z,23.54
2019-03-27T13:50:29.666Z,23.76
2019-03-27T13:53:07.420Z,23.81
2019-03-27T13:55:59.200Z,23.99
2019-03-27T13:58:47.061Z,24.06
2019-03-27T14:01:43.272Z,24.09
2019-03-27T14:04:17.659Z,24.19
2019-03-27T14:06:55.800Z,24.71
2019-03-27T14:09:43.344Z,25.03
2019-03-27T14:12:37.871Z,25.30
2019-03-27T14:15:16.247Z,25.64
2019-03-27T14:18:08.694Z,26.11
2019-03-27T14:20:57.781Z,26.46
2019-03-27T14:26:44.008Z,26.96
2019-03-27T14:29:08.540Z,27.12
2019-03-27T14:32:00.520Z,27.25
2019-03-27T14:34:35.916Z,27.36
2019-03-27T14:37:15.575Z,27.49
2019-03-27T14:39:45.880Z,27.65
2019-03-27T14:42:39.232Z,27.66
2019-03-27T14:45:34.810Z,27.76
2019-03-27T14:51:00.883Z,28.12
2019-03-27T14:53:35.557Z,28.35
2019-03-27T14:56:20.017Z,28.40
2019-03-27T14:58:50.154Z,28.48
2019-03-27T15:59:22.809Z,28.46
2019-03-27T16:13:14.860Z,29.05
2019-03-27T16:15:48.012Z,29.15
2019-03-27T16:18:20.293Z,29.19
2019-03-27T16:20:59.440Z,29.40
2019-03-27T16:23:33.014Z,29.62
2019-03-27T16:26:02.936Z,29.73
2019-03-27T16:28:32.996Z,29.74
2019-03-27T16:31:04.310Z,30.07
2019-03-27T16:33:35.818Z,29.99
2019-03-27T16:36:05.812Z,30.04
2019-03-27T16:38:35.874Z,30.15
2019-03-27T16:41:05.627Z,30.45
2019-03-27T16:43:35.458Z,30.63
2019-03-27T16:46:05.336Z,30.70
2019-03-27T16:48:35.324Z,30.98
2019-03-27T16:51:05.190Z,31.11
2019-03-27T16:53:35.005Z,31.30
2019-03-27T16:56:26.503Z,31.43
2019-03-27T16:58:56.578Z,31.52
2019-03-27T17:01:27.986Z,31.62
2019-03-27T17:03:58.118Z,31.76
2019-03-27T17:06:28.199Z,31.90
2019-03-27T17:08:58.154Z,31.88
2019-03-27T17:11:28.381Z,32.01
2019-03-27T17:13:58.475Z,32.08
2019-03-27T17:16:28.454Z,32.12
2019-03-27T17:18:58.417Z,32.19
2019-03-27T17:21:28.429Z,32.24
2019-03-27T17:23:58.436Z,32.42
2019-03-27T17:26:28.278Z,32.52
2019-03-27T17:28:58.248Z,32.62
2019-03-27T17:31:28.105Z,32.84
2019-03-27T17:33:57.896Z,33.07
2019-03-27T17:36:27.871Z,33.10
2019-03-27T17:38:57.823Z,33.25
2019-03-27T17:41:28.398Z,33.35
2019-03-27T17:43:58.834Z,33.46
2019-03-27T17:46:32.084Z,33.64
2019-03-27T17:49:22.510Z,33.81
2019-03-27T17:51:52.608Z,33.92
2019-03-27T17:54:22.527Z,34.07
2019-03-27T17:56:52.496Z,34.17
2019-03-27T17:59:22.631Z,34.31
2019-03-27T18:01:52.630Z,34.47
2019-03-27T18:04:24.356Z,34.62
2019-03-27T18:06:54.272Z,34.77
2019-03-27T18:09:24.058Z,34.93
2019-03-27T18:11:54.224Z,35.02
2019-03-27T18:14:24.209Z,35.12
2019-03-27T18:16:54.343Z,35.19
2019-03-27T18:19:24.214Z,35.30
2019-03-27T18:22:07.091Z,35.35
2019-03-27T18:24:25.689Z,35.51
2019-03-27T18:26:55.905Z,35.69
2019-03-27T18:29:25.757Z,35.85
2019-03-27T18:31:56.713Z,36.08
2019-03-27T18:34:26.765Z,36.30
2019-03-27T18:36:57.271Z,36.43
2019-03-27T18:39:27.475Z,36.67
2019-03-27T18:41:57.889Z,36.77
2019-03-27T18:44:28.321Z,36.90
2019-03-27T18:46:58.659Z,37.00
2019-03-27T18:49:29.690Z,37.09
2019-03-27T18:52:00.304Z,37.22
2019-03-27T18:54:31.787Z,37.32
2019-03-27T18:57:05.467Z,37.49
2019-03-27T18:59:35.329Z,37.65
2019-03-27T19:02:05.208Z,37.68
2019-03-27T19:04:35.107Z,37.83
2019-03-27T19:07:04.914Z,37.94
2019-03-27T19:09:36.759Z,38.00
2019-03-27T19:12:06.600Z,38.05
2019-03-27T19:14:36.592Z,38.17
2019-03-27T19:17:06.274Z,38.20
2019-03-27T19:19:36.015Z,38.37
2019-03-27T19:22:05.694Z,38.40
2019-03-27T19:24:35.438Z,38.52
2019-03-27T19:27:08.009Z,38.60
2019-03-27T19:29:37.787Z,38.55
2019-03-27T19:32:07.588Z,38.53
2019-03-27T19:34:37.352Z,38.59
2019-03-27T19:37:07.114Z,38.61
2019-03-27T19:39:36.854Z,38.63
2019-03-27T19:42:06.566Z,38.65
2019-03-27T19:44:36.244Z,38.70
2019-03-27T19:47:05.990Z,38.69
2019-03-27T19:49:35.964Z,38.70
2019-03-27T19:52:05.681Z,38.76
2019-03-27T19:54:35.431Z,38.72
2019-03-27T19:57:05.128Z,38.73
2019-03-27T19:59:34.797Z,38.74
2019-03-27T20:02:04.558Z,38.72
2019-03-27T20:04:34.319Z,38.84
2019-03-27T20:07:04.094Z,38.88
2019-03-27T20:09:33.792Z,38.94
2019-03-27T20:12:03.722Z,39.03
2019-03-27T20:14:33.671Z,39.07
2019-03-27T20:17:03.506Z,39.14
2019-03-27T20:19:33.174Z,39.14
2019-03-27T20:22:02.861Z,39.27
2019-03-27T20:24:40.976Z,39.38
2019-03-27T20:27:03.915Z,39.40
2019-03-27T20:29:33.610Z,39.37
2019-03-27T20:32:06.683Z,39.39
2019-03-27T20:34:36.345Z,39.41
2019-03-27T20:37:06.045Z,39.47
2019-03-27T20:39:35.771Z,39.56
2019-03-27T20:42:05.471Z,39.57
2019-03-27T20:44:35.120Z,39.59
2019-03-27T20:47:04.885Z,39.66
2019-03-27T20:49:34.578Z,39.74
2019-03-27T20:52:04.443Z,39.80
2019-03-27T20:54:34.215Z,39.86
2019-03-27T20:57:03.893Z,39.90
2019-03-27T20:59:33.599Z,39.94
2019-03-27T21:02:03.254Z,40.01
2019-03-27T21:04:33.081Z,40.01
2019-03-27T21:07:02.706Z,40.02
2019-03-27T21:09:32.543Z,40.04
2019-03-27T21:12:02.225Z,40.13
2019-03-27T21:14:31.928Z,40.13
2019-03-27T21:17:01.558Z,40.15
2019-03-27T21:19:31.290Z,40.18
2019-03-27T21:22:00.960Z,40.26
2019-03-27T21:24:30.679Z,40.31
2019-03-27T21:27:00.395Z,40.41
2019-03-27T21:29:30.092Z,40.46
2019-03-27T21:31:59.769Z,40.44
2019-03-27T21:34:29.429Z,40.41
2019-03-27T21:36:59.118Z,40.44
2019-03-27T21:39:28.848Z,40.55
2019-03-27T21:41:58.600Z,40.62
2019-03-27T21:44:28.268Z,40.72
2019-03-27T21:46:58.055Z,40.73
2019-03-27T21:49:27.734Z,40.75
2019-03-27T21:51:57.381Z,40.75
2019-03-27T21:54:27.056Z,40.78
2019-03-27T21:56:56.713Z,40.85
2019-03-27T21:59:26.463Z,40.86
2019-03-27T22:01:56.136Z,40.94
2019-03-27T22:04:25.831Z,40.97
2019-03-27T22:06:55.550Z,41.04
2019-03-27T22:09:25.191Z,41.06
2019-03-27T22:11:54.921Z,41.10
2019-03-27T22:14:24.579Z,41.13
2019-03-27T22:16:54.321Z,41.13
2019-03-27T22:19:23.994Z,41.27
2019-03-27T22:21:53.640Z,41.30
2019-03-27T22:24:23.282Z,41.32
2019-03-27T22:26:52.966Z,41.33
2019-03-27T22:29:22.623Z,41.35
2019-03-27T22:31:52.250Z,41.35
2019-03-27T22:34:21.888Z,41.39
2019-03-27T22:36:51.584Z,41.42
2019-03-27T22:39:21.274Z,41.46
2019-03-27T22:41:50.931Z,41.52
2019-03-27T22:44:20.600Z,41.57
2019-03-27T22:46:50.273Z,41.58
2019-03-27T22:49:19.957Z,41.55
2019-03-27T22:51:49.754Z,41.57
2019-03-27T22:54:19.439Z,41.60
2019-03-27T22:56:49.130Z,41.59
2019-03-27T22:59:19.696Z,41.60
2019-03-27T23:01:49.596Z,41.66
2019-03-27T23:04:19.274Z,41.67
2019-03-27T23:06:48.948Z,41.69
2019-03-27T23:09:18.660Z,41.69
2019-03-27T23:11:48.438Z,41.74
2019-03-27T23:14:18.135Z,41.74
2019-03-27T23:16:47.842Z,41.74
2019-03-27T23:19:17.506Z,41.78
2019-03-27T23:21:47.262Z,41.87
2019-03-27T23:24:16.902Z,41.95
2019-03-27T23:26:46.627Z,42.10
2019-03-27T23:29:16.324Z,42.12
2019-03-27T23:31:46.089Z,42.20
2019-03-27T23:34:15.722Z,42.28
2019-03-27T23:36:45.427Z,42.30
2019-03-27T23:39:15.112Z,42.35
2019-03-27T23:41:45.500Z,42.45
2019-03-27T23:44:15.176Z,42.49
2019-03-27T23:46:44.900Z,42.46
2019-03-27T23:49:14.570Z,42.48
2019-03-27T23:51:44.340Z,42.49
2019-03-27T23:54:14.021Z,42.59
2019-03-27T23:56:43.807Z,42.67
2019-03-27T23:59:13.502Z,42.78
